Terminal Aerodrome Forecast
Issued by NWS

Home | Current Version | Previous Version | Text Only | Print | Product List | Glossary On
Versions: 1 2 3 4 5 6 7 8 9 10 11 12 13 14 15 16 17 18 19 20 21
332
FTUS41 KGYX 250526
TAFPSM
TAF
KPSM 250526Z 2506/2606 02005KT P6SM SCT100 OVC200
     FM251000 02007KT P6SM BKN050 OVC100
     FM251200 04008KT 2SM -SN OVC015
      TEMPO 2513/2516 1/2SM SNPL OVC004
     FM251600 05008KT 1SM -RAPL OVC007
     FM251900 09008KT 2SM -RA OVC007
     FM252300 14006KT P6SM OVC003=

USA.gov is the U.S. government's official web portal to all federal, state and local government web resources and services.